sensor_id;sensor_type;location;lat;lon;timestamp;P1;durP1;ratioP1;P2;durP2;ratioP2
13067;SDS011;6600;51.362;6.686;2023-05-13T00:00:07;5.27;;;4.60;;
13067;SDS011;6600;51.362;6.686;2023-05-13T00:02:33;6.07;;;4.57;;
13067;SDS011;6600;51.362;6.686;2023-05-13T00:04:59;8.00;;;4.83;;
13067;SDS011;6600;51.362;6.686;2023-05-13T00:07:24;7.73;;;5.23;;
13067;SDS011;6600;51.362;6.686;2023-05-13T00:09:49;6.07;;;4.37;;
13067;SDS011;6600;51.362;6.686;2023-05-13T00:12:15;9.03;;;5.30;;
13067;SDS011;6600;51.362;6.686;2023-05-13T00:14:41;6.00;;;5.03;;
13067;SDS011;6600;51.362;6.686;2023-05-13T00:17:06;7.07;;;5.27;;
13067;SDS011;6600;51.362;6.686;2023-05-13T00:19:31;5.87;;;5.13;;
13067;SDS011;6600;51.362;6.686;2023-05-13T00:21:57;6.90;;;4.97;;
13067;SDS011;6600;51.362;6.686;2023-05-13T00:24:22;6.77;;;5.17;;
13067;SDS011;6600;51.362;6.686;2023-05-13T00:26:47;9.77;;;4.73;;
13067;SDS011;6600;51.362;6.686;2023-05-13T00:29:13;4.90;;;4.40;;
13067;SDS011;6600;51.362;6.686;2023-05-13T00:31:38;4.83;;;4.40;;
13067;SDS011;6600;51.362;6.686;2023-05-13T00:34:04;6.17;;;4.60;;
13067;SDS011;6600;51.362;6.686;2023-05-13T00:36:29;7.97;;;5.73;;
13067;SDS011;6600;51.362;6.686;2023-05-13T00:38:54;9.47;;;5.10;;
13067;SDS011;6600;51.362;6.686;2023-05-13T00:41:21;7.67;;;4.97;;
13067;SDS011;6600;51.362;6.686;2023-05-13T00:43:46;6.37;;;4.90;;
13067;SDS011;6600;51.362;6.686;2023-05-13T00:46:11;5.63;;;5.03;;
13067;SDS011;6600;51.362;6.686;2023-05-13T00:48:38;7.53;;;4.73;;
13067;SDS011;6600;51.362;6.686;2023-05-13T00:51:04;7.63;;;5.37;;
13067;SDS011;6600;51.362;6.686;2023-05-13T00:53:30;6.63;;;5.27;;
13067;SDS011;6600;51.362;6.686;2023-05-13T00:55:56;7.27;;;5.10;;
13067;SDS011;6600;51.362;6.686;2023-05-13T00:58:22;8.17;;;5.33;;
13067;SDS011;6600;51.362;6.686;2023-05-13T01:04:13;6.50;;;4.37;;
13067;SDS011;6600;51.362;6.686;2023-05-13T01:11:53;6.27;;;4.87;;
13067;SDS011;6600;51.362;6.686;2023-05-13T01:14:24;5.00;;;4.27;;
13067;SDS011;6600;51.362;6.686;2023-05-13T01:20:00;9.03;;;5.00;;
13067;SDS011;6600;51.362;6.686;2023-05-13T01:22:28;5.50;;;3.77;;
13067;SDS011;6600;51.362;6.686;2023-05-13T01:24:54;5.43;;;4.43;;
13067;SDS011;6600;51.362;6.686;2023-05-13T01:27:19;6.53;;;4.70;;
13067;SDS011;6600;51.362;6.686;2023-05-13T01:29:44;6.13;;;4.63;;
13067;SDS011;6600;51.362;6.686;2023-05-13T01:32:11;5.03;;;3.80;;
13067;SDS011;6600;51.362;6.686;2023-05-13T01:34:38;8.67;;;4.87;;
13067;SDS011;6600;51.362;6.686;2023-05-13T01:37:04;6.23;;;4.13;;
13067;SDS011;6600;51.362;6.686;2023-05-13T01:39:30;5.50;;;3.93;;
13067;SDS011;6600;51.362;6.686;2023-05-13T01:41:56;6.53;;;4.00;;
13067;SDS011;6600;51.362;6.686;2023-05-13T01:44:22;6.27;;;4.47;;
13067;SDS011;6600;51.362;6.686;2023-05-13T01:46:48;9.50;;;4.73;;
13067;SDS011;6600;51.362;6.686;2023-05-13T01:49:14;6.30;;;4.10;;
13067;SDS011;6600;51.362;6.686;2023-05-13T01:51:40;6.10;;;4.57;;
13067;SDS011;6600;51.362;6.686;2023-05-13T01:54:06;6.63;;;4.10;;
13067;SDS011;6600;51.362;6.686;2023-05-13T01:56:31;4.93;;;4.37;;
13067;SDS011;6600;51.362;6.686;2023-05-13T01:58:56;6.27;;;4.33;;
13067;SDS011;6600;51.362;6.686;2023-05-13T02:01:22;7.57;;;5.30;;
13067;SDS011;6600;51.362;6.686;2023-05-13T02:03:47;5.47;;;4.10;;
13067;SDS011;6600;51.362;6.686;2023-05-13T02:06:13;6.03;;;4.47;;
13067;SDS011;6600;51.362;6.686;2023-05-13T02:08:38;7.10;;;4.50;;
13067;SDS011;6600;51.362;6.686;2023-05-13T02:11:03;6.13;;;4.17;;
13067;SDS011;6600;51.362;6.686;2023-05-13T02:13:29;6.00;;;4.10;;
13067;SDS011;6600;51.362;6.686;2023-05-13T02:15:54;4.37;;;3.40;;
13067;SDS011;6600;51.362;6.686;2023-05-13T02:18:20;7.10;;;4.23;;
13067;SDS011;6600;51.362;6.686;2023-05-13T02:20:46;4.47;;;3.53;;
13067;SDS011;6600;51.362;6.686;2023-05-13T02:23:11;4.53;;;4.00;;
13067;SDS011;6600;51.362;6.686;2023-05-13T02:25:37;6.80;;;4.80;;
13067;SDS011;6600;51.362;6.686;2023-05-13T02:28:02;5.33;;;3.87;;
13067;SDS011;6600;51.362;6.686;2023-05-13T02:30:27;7.13;;;3.83;;
13067;SDS011;6600;51.362;6.686;2023-05-13T02:32:53;5.87;;;4.23;;
13067;SDS011;6600;51.362;6.686;2023-05-13T02:35:20;7.20;;;4.13;;
13067;SDS011;6600;51.362;6.686;2023-05-13T02:37:46;5.97;;;4.10;;
13067;SDS011;6600;51.362;6.686;2023-05-13T02:40:12;6.10;;;4.70;;
13067;SDS011;6600;51.362;6.686;2023-05-13T02:42:37;6.13;;;4.67;;
13067;SDS011;6600;51.362;6.686;2023-05-13T02:45:03;4.80;;;4.13;;
13067;SDS011;6600;51.362;6.686;2023-05-13T02:47:28;4.37;;;3.70;;
13067;SDS011;6600;51.362;6.686;2023-05-13T02:49:54;4.93;;;4.43;;
13067;SDS011;6600;51.362;6.686;2023-05-13T02:52:20;4.20;;;3.63;;
13067;SDS011;6600;51.362;6.686;2023-05-13T02:54:45;5.73;;;3.90;;
13067;SDS011;6600;51.362;6.686;2023-05-13T02:57:11;5.37;;;4.00;;
13067;SDS011;6600;51.362;6.686;2023-05-13T02:59:36;5.17;;;3.93;;
13067;SDS011;6600;51.362;6.686;2023-05-13T03:02:02;4.67;;;4.17;;
13067;SDS011;6600;51.362;6.686;2023-05-13T03:04:27;7.13;;;4.27;;
13067;SDS011;6600;51.362;6.686;2023-05-13T03:06:52;4.87;;;4.10;;
13067;SDS011;6600;51.362;6.686;2023-05-13T03:09:18;6.77;;;4.80;;
13067;SDS011;6600;51.362;6.686;2023-05-13T03:11:43;7.03;;;5.17;;
13067;SDS011;6600;51.362;6.686;2023-05-13T03:14:08;5.87;;;4.17;;
13067;SDS011;6600;51.362;6.686;2023-05-13T03:16:34;5.90;;;4.47;;
13067;SDS011;6600;51.362;6.686;2023-05-13T03:18:59;6.50;;;5.47;;
13067;SDS011;6600;51.362;6.686;2023-05-13T03:21:24;6.47;;;4.50;;
13067;SDS011;6600;51.362;6.686;2023-05-13T03:23:50;6.67;;;4.97;;
13067;SDS011;6600;51.362;6.686;2023-05-13T03:26:15;6.87;;;4.30;;
13067;SDS011;6600;51.362;6.686;2023-05-13T03:28:40;6.20;;;4.77;;
13067;SDS011;6600;51.362;6.686;2023-05-13T03:31:06;6.40;;;4.57;;
13067;SDS011;6600;51.362;6.686;2023-05-13T03:33:31;7.63;;;4.30;;
13067;SDS011;6600;51.362;6.686;2023-05-13T03:35:57;8.40;;;4.63;;
13067;SDS011;6600;51.362;6.686;2023-05-13T03:38:22;5.77;;;4.30;;
13067;SDS011;6600;51.362;6.686;2023-05-13T03:40:47;6.27;;;3.90;;
13067;SDS011;6600;51.362;6.686;2023-05-13T03:43:13;5.63;;;4.23;;
13067;SDS011;6600;51.362;6.686;2023-05-13T03:45:38;6.67;;;4.43;;
13067;SDS011;6600;51.362;6.686;2023-05-13T03:48:03;4.33;;;3.90;;
13067;SDS011;6600;51.362;6.686;2023-05-13T03:50:29;6.47;;;4.43;;
13067;SDS011;6600;51.362;6.686;2023-05-13T03:52:54;6.77;;;5.00;;
13067;SDS011;6600;51.362;6.686;2023-05-13T03:55:20;7.30;;;4.23;;
13067;SDS011;6600;51.362;6.686;2023-05-13T03:57:46;11.90;;;4.77;;
13067;SDS011;6600;51.362;6.686;2023-05-13T04:00:13;6.17;;;4.37;;
13067;SDS011;6600;51.362;6.686;2023-05-13T04:02:39;4.93;;;4.03;;
13067;SDS011;6600;51.362;6.686;2023-05-13T04:05:04;7.13;;;5.00;;
13067;SDS011;6600;51.362;6.686;2023-05-13T04:07:30;6.37;;;4.00;;
13067;SDS011;6600;51.362;6.686;2023-05-13T04:09:55;6.40;;;4.50;;
13067;SDS011;6600;51.362;6.686;2023-05-13T04:12:21;5.10;;;4.37;;
13067;SDS011;6600;51.362;6.686;2023-05-13T04:14:46;5.83;;;4.60;;
13067;SDS011;6600;51.362;6.686;2023-05-13T04:17:11;8.07;;;4.77;;
13067;SDS011;6600;51.362;6.686;2023-05-13T04:19:37;6.33;;;4.43;;
13067;SDS011;6600;51.362;6.686;2023-05-13T04:22:02;5.63;;;4.53;;
13067;SDS011;6600;51.362;6.686;2023-05-13T04:24:27;6.20;;;4.17;;
13067;SDS011;6600;51.362;6.686;2023-05-13T04:26:53;7.00;;;5.00;;
13067;SDS011;6600;51.362;6.686;2023-05-13T04:29:18;9.80;;;4.70;;
13067;SDS011;6600;51.362;6.686;2023-05-13T04:31:43;5.17;;;4.37;;
13067;SDS011;6600;51.362;6.686;2023-05-13T04:34:09;5.27;;;3.90;;
13067;SDS011;6600;51.362;6.686;2023-05-13T04:36:35;6.93;;;4.80;;
13067;SDS011;6600;51.362;6.686;2023-05-13T04:39:00;5.83;;;4.47;;
13067;SDS011;6600;51.362;6.686;2023-05-13T04:41:25;8.23;;;5.40;;
13067;SDS011;6600;51.362;6.686;2023-05-13T04:43:51;7.40;;;4.80;;
13067;SDS011;6600;51.362;6.686;2023-05-13T04:46:16;7.07;;;4.67;;
13067;SDS011;6600;51.362;6.686;2023-05-13T04:48:41;7.73;;;4.93;;
13067;SDS011;6600;51.362;6.686;2023-05-13T04:51:07;7.37;;;4.83;;
13067;SDS011;6600;51.362;6.686;2023-05-13T04:53:32;7.47;;;4.80;;
13067;SDS011;6600;51.362;6.686;2023-05-13T04:55:58;6.23;;;4.30;;
13067;SDS011;6600;51.362;6.686;2023-05-13T04:58:25;14.23;;;4.53;;
13067;SDS011;6600;51.362;6.686;2023-05-13T05:00:51;5.70;;;4.50;;
13067;SDS011;6600;51.362;6.686;2023-05-13T05:03:16;6.87;;;5.10;;
13067;SDS011;6600;51.362;6.686;2023-05-13T05:05:42;6.57;;;4.90;;
13067;SDS011;6600;51.362;6.686;2023-05-13T05:08:07;8.00;;;4.67;;
13067;SDS011;6600;51.362;6.686;2023-05-13T05:10:32;6.30;;;4.70;;
13067;SDS011;6600;51.362;6.686;2023-05-13T05:12:58;6.67;;;4.00;;
13067;SDS011;6600;51.362;6.686;2023-05-13T05:15:24;5.83;;;4.33;;
13067;SDS011;6600;51.362;6.686;2023-05-13T05:17:49;5.93;;;4.77;;
13067;SDS011;6600;51.362;6.686;2023-05-13T05:20:14;6.13;;;4.50;;
13067;SDS011;6600;51.362;6.686;2023-05-13T05:22:40;6.17;;;5.13;;
13067;SDS011;6600;51.362;6.686;2023-05-13T05:25:06;8.80;;;4.60;;
13067;SDS011;6600;51.362;6.686;2023-05-13T05:27:32;5.57;;;4.73;;
13067;SDS011;6600;51.362;6.686;2023-05-13T05:29:58;6.73;;;4.90;;
13067;SDS011;6600;51.362;6.686;2023-05-13T05:32:23;6.23;;;4.47;;
13067;SDS011;6600;51.362;6.686;2023-05-13T05:34:49;4.80;;;4.30;;
13067;SDS011;6600;51.362;6.686;2023-05-13T05:37:14;6.87;;;4.13;;
13067;SDS011;6600;51.362;6.686;2023-05-13T05:39:39;6.27;;;4.73;;
13067;SDS011;6600;51.362;6.686;2023-05-13T05:42:05;7.10;;;4.53;;
13067;SDS011;6600;51.362;6.686;2023-05-13T05:44:31;5.70;;;4.53;;
13067;SDS011;6600;51.362;6.686;2023-05-13T05:46:57;6.93;;;5.17;;
13067;SDS011;6600;51.362;6.686;2023-05-13T05:49:22;5.10;;;4.60;;
13067;SDS011;6600;51.362;6.686;2023-05-13T05:51:47;7.30;;;4.83;;
13067;SDS011;6600;51.362;6.686;2023-05-13T05:54:13;4.77;;;4.10;;
13067;SDS011;6600;51.362;6.686;2023-05-13T05:56:38;5.43;;;4.63;;
13067;SDS011;6600;51.362;6.686;2023-05-13T05:59:04;5.60;;;4.30;;
13067;SDS011;6600;51.362;6.686;2023-05-13T06:01:29;7.53;;;4.10;;
13067;SDS011;6600;51.362;6.686;2023-05-13T06:03:57;6.30;;;5.00;;
13067;SDS011;6600;51.362;6.686;2023-05-13T06:06:23;4.43;;;4.03;;
13067;SDS011;6600;51.362;6.686;2023-05-13T06:08:49;5.23;;;4.47;;
13067;SDS011;6600;51.362;6.686;2023-05-13T06:11:14;7.83;;;4.77;;
13067;SDS011;6600;51.362;6.686;2023-05-13T06:13:40;8.17;;;4.50;;
13067;SDS011;6600;51.362;6.686;2023-05-13T06:16:05;7.47;;;4.97;;
13067;SDS011;6600;51.362;6.686;2023-05-13T06:18:30;7.10;;;4.33;;
13067;SDS011;6600;51.362;6.686;2023-05-13T06:20:56;7.17;;;4.97;;
13067;SDS011;6600;51.362;6.686;2023-05-13T06:23:21;5.47;;;3.97;;
13067;SDS011;6600;51.362;6.686;2023-05-13T06:25:46;4.53;;;4.10;;
13067;SDS011;6600;51.362;6.686;2023-05-13T06:28:12;5.43;;;4.00;;
13067;SDS011;6600;51.362;6.686;2023-05-13T06:30:37;6.87;;;4.47;;
13067;SDS011;6600;51.362;6.686;2023-05-13T06:33:03;6.33;;;4.70;;
13067;SDS011;6600;51.362;6.686;2023-05-13T06:35:28;6.23;;;4.80;;
13067;SDS011;6600;51.362;6.686;2023-05-13T06:37:54;6.33;;;4.50;;
13067;SDS011;6600;51.362;6.686;2023-05-13T06:40:19;6.70;;;4.60;;
13067;SDS011;6600;51.362;6.686;2023-05-13T06:42:44;6.00;;;4.73;;
13067;SDS011;6600;51.362;6.686;2023-05-13T06:45:10;6.07;;;4.80;;
13067;SDS011;6600;51.362;6.686;2023-05-13T06:47:35;5.10;;;4.10;;
13067;SDS011;6600;51.362;6.686;2023-05-13T06:50:01;5.97;;;3.97;;
13067;SDS011;6600;51.362;6.686;2023-05-13T06:52:27;5.60;;;4.40;;
13067;SDS011;6600;51.362;6.686;2023-05-13T06:54:53;4.53;;;3.77;;
13067;SDS011;6600;51.362;6.686;2023-05-13T06:57:18;7.83;;;4.23;;
13067;SDS011;6600;51.362;6.686;2023-05-13T06:59:43;4.53;;;3.60;;
13067;SDS011;6600;51.362;6.686;2023-05-13T07:02:09;6.77;;;4.10;;
13067;SDS011;6600;51.362;6.686;2023-05-13T07:04:35;6.53;;;4.13;;
13067;SDS011;6600;51.362;6.686;2023-05-13T07:07:01;6.77;;;4.17;;
13067;SDS011;6600;51.362;6.686;2023-05-13T07:09:26;5.53;;;3.73;;
13067;SDS011;6600;51.362;6.686;2023-05-13T07:11:52;4.77;;;3.60;;
13067;SDS011;6600;51.362;6.686;2023-05-13T07:14:18;5.80;;;3.73;;
13067;SDS011;6600;51.362;6.686;2023-05-13T07:16:44;4.20;;;3.77;;
13067;SDS011;6600;51.362;6.686;2023-05-13T07:19:09;3.87;;;3.47;;
13067;SDS011;6600;51.362;6.686;2023-05-13T07:21:35;5.07;;;3.33;;
13067;SDS011;6600;51.362;6.686;2023-05-13T07:24:00;3.67;;;3.37;;
13067;SDS011;6600;51.362;6.686;2023-05-13T07:26:26;4.10;;;3.20;;
13067;SDS011;6600;51.362;6.686;2023-05-13T07:28:51;5.50;;;3.30;;
13067;SDS011;6600;51.362;6.686;2023-05-13T07:31:17;3.13;;;2.80;;
13067;SDS011;6600;51.362;6.686;2023-05-13T07:33:42;4.77;;;3.57;;
13067;SDS011;6600;51.362;6.686;2023-05-13T07:36:07;3.90;;;3.50;;
13067;SDS011;6600;51.362;6.686;2023-05-13T07:38:33;3.40;;;3.10;;
13067;SDS011;6600;51.362;6.686;2023-05-13T07:40:58;3.97;;;3.53;;
13067;SDS011;6600;51.362;6.686;2023-05-13T07:43:24;5.93;;;3.43;;
13067;SDS011;6600;51.362;6.686;2023-05-13T07:45:49;5.10;;;3.83;;
13067;SDS011;6600;51.362;6.686;2023-05-13T07:48:15;3.53;;;3.20;;
13067;SDS011;6600;51.362;6.686;2023-05-13T07:50:42;6.27;;;3.33;;
13067;SDS011;6600;51.362;6.686;2023-05-13T07:53:08;4.97;;;3.60;;
13067;SDS011;6600;51.362;6.686;2023-05-13T07:55:33;3.93;;;3.17;;
13067;SDS011;6600;51.362;6.686;2023-05-13T07:57:59;4.07;;;3.57;;
13067;SDS011;6600;51.362;6.686;2023-05-13T08:00:24;4.17;;;3.30;;
13067;SDS011;6600;51.362;6.686;2023-05-13T08:02:49;3.90;;;3.47;;
13067;SDS011;6600;51.362;6.686;2023-05-13T08:05:15;3.77;;;3.20;;
13067;SDS011;6600;51.362;6.686;2023-05-13T08:07:40;5.30;;;3.80;;
13067;SDS011;6600;51.362;6.686;2023-05-13T08:10:05;3.67;;;2.93;;
13067;SDS011;6600;51.362;6.686;2023-05-13T08:12:31;4.20;;;3.70;;
13067;SDS011;6600;51.362;6.686;2023-05-13T08:14:57;3.80;;;3.40;;
13067;SDS011;6600;51.362;6.686;2023-05-13T08:17:22;4.87;;;3.33;;
13067;SDS011;6600;51.362;6.686;2023-05-13T08:19:47;3.87;;;3.30;;
13067;SDS011;6600;51.362;6.686;2023-05-13T08:22:13;6.17;;;3.60;;
13067;SDS011;6600;51.362;6.686;2023-05-13T08:24:38;4.50;;;3.40;;
13067;SDS011;6600;51.362;6.686;2023-05-13T08:27:07;4.60;;;3.60;;
13067;SDS011;6600;51.362;6.686;2023-05-13T08:29:32;4.23;;;2.80;;
13067;SDS011;6600;51.362;6.686;2023-05-13T08:31:57;4.07;;;3.67;;
13067;SDS011;6600;51.362;6.686;2023-05-13T08:34:23;3.17;;;2.60;;
13067;SDS011;6600;51.362;6.686;2023-05-13T08:36:48;4.33;;;3.30;;
13067;SDS011;6600;51.362;6.686;2023-05-13T08:39:13;3.77;;;3.20;;
13067;SDS011;6600;51.362;6.686;2023-05-13T08:41:39;4.73;;;3.53;;
13067;SDS011;6600;51.362;6.686;2023-05-13T08:44:05;3.20;;;2.70;;
13067;SDS011;6600;51.362;6.686;2023-05-13T08:46:33;6.03;;;3.40;;
13067;SDS011;6600;51.362;6.686;2023-05-13T08:49:01;3.30;;;3.00;;
13067;SDS011;6600;51.362;6.686;2023-05-13T08:51:28;4.80;;;3.60;;
13067;SDS011;6600;51.362;6.686;2023-05-13T08:53:53;4.60;;;3.33;;
13067;SDS011;6600;51.362;6.686;2023-05-13T08:56:19;4.27;;;3.20;;
13067;SDS011;6600;51.362;6.686;2023-05-13T08:58:46;3.53;;;2.80;;
13067;SDS011;6600;51.362;6.686;2023-05-13T09:01:11;4.27;;;2.90;;
13067;SDS011;6600;51.362;6.686;2023-05-13T09:03:38;3.90;;;3.43;;
13067;SDS011;6600;51.362;6.686;2023-05-13T09:06:16;2.83;;;2.53;;
13067;SDS011;6600;51.362;6.686;2023-05-13T09:08:41;3.80;;;2.83;;
13067;SDS011;6600;51.362;6.686;2023-05-13T09:11:07;4.00;;;2.87;;
13067;SDS011;6600;51.362;6.686;2023-05-13T09:13:32;3.00;;;2.70;;
13067;SDS011;6600;51.362;6.686;2023-05-13T09:15:57;4.07;;;2.43;;
13067;SDS011;6600;51.362;6.686;2023-05-13T09:18:28;3.63;;;3.17;;
13067;SDS011;6600;51.362;6.686;2023-05-13T09:20:55;3.60;;;2.87;;
13067;SDS011;6600;51.362;6.686;2023-05-13T09:23:21;3.37;;;2.90;;
13067;SDS011;6600;51.362;6.686;2023-05-13T09:25:47;3.73;;;2.63;;
13067;SDS011;6600;51.362;6.686;2023-05-13T09:28:13;2.83;;;2.33;;
13067;SDS011;6600;51.362;6.686;2023-05-13T09:30:39;2.77;;;2.50;;
13067;SDS011;6600;51.362;6.686;2023-05-13T09:33:06;3.37;;;2.43;;
13067;SDS011;6600;51.362;6.686;2023-05-13T09:35:33;2.40;;;2.20;;
13067;SDS011;6600;51.362;6.686;2023-05-13T09:37:59;3.87;;;2.40;;
13067;SDS011;6600;51.362;6.686;2023-05-13T09:40:25;2.73;;;2.43;;
13067;SDS011;6600;51.362;6.686;2023-05-13T09:42:50;2.60;;;2.40;;
13067;SDS011;6600;51.362;6.686;2023-05-13T09:45:21;2.33;;;2.13;;
13067;SDS011;6600;51.362;6.686;2023-05-13T09:47:49;1.93;;;1.83;;
13067;SDS011;6600;51.362;6.686;2023-05-13T09:50:18;2.60;;;2.13;;
13067;SDS011;6600;51.362;6.686;2023-05-13T09:52:44;1.90;;;1.80;;
13067;SDS011;6600;51.362;6.686;2023-05-13T09:55:09;2.00;;;1.83;;
13067;SDS011;6600;51.362;6.686;2023-05-13T09:57:34;3.03;;;2.60;;
13067;SDS011;6600;51.362;6.686;2023-05-13T10:00:01;3.17;;;2.17;;
13067;SDS011;6600;51.362;6.686;2023-05-13T10:02:29;2.57;;;2.37;;
13067;SDS011;6600;51.362;6.686;2023-05-13T10:04:55;2.40;;;2.20;;
13067;SDS011;6600;51.362;6.686;2023-05-13T10:07:21;3.27;;;2.10;;
13067;SDS011;6600;51.362;6.686;2023-05-13T10:09:56;2.37;;;2.17;;
13067;SDS011;6600;51.362;6.686;2023-05-13T10:12:25;2.37;;;2.10;;
13067;SDS011;6600;51.362;6.686;2023-05-13T10:14:51;3.03;;;2.37;;
13067;SDS011;6600;51.362;6.686;2023-05-13T10:17:22;2.63;;;2.33;;
13067;SDS011;6600;51.362;6.686;2023-05-13T10:19:49;2.57;;;2.10;;
13067;SDS011;6600;51.362;6.686;2023-05-13T10:22:20;3.30;;;2.37;;
13067;SDS011;6600;51.362;6.686;2023-05-13T10:24:52;2.23;;;1.90;;
13067;SDS011;6600;51.362;6.686;2023-05-13T10:27:19;1.83;;;1.73;;
13067;SDS011;6600;51.362;6.686;2023-05-13T10:29:46;2.70;;;1.90;;
13067;SDS011;6600;51.362;6.686;2023-05-13T10:32:15;2.80;;;1.90;;
13067;SDS011;6600;51.362;6.686;2023-05-13T10:34:40;2.33;;;1.70;;
13067;SDS011;6600;51.362;6.686;2023-05-13T10:37:53;2.83;;;2.03;;
13067;SDS011;6600;51.362;6.686;2023-05-13T10:40:11;1.97;;;1.87;;
13067;SDS011;6600;51.362;6.686;2023-05-13T10:43:09;2.00;;;1.80;;
13067;SDS011;6600;51.362;6.686;2023-05-13T10:45:35;2.03;;;1.80;;
13067;SDS011;6600;51.362;6.686;2023-05-13T10:48:07;2.77;;;2.00;;
13067;SDS011;6600;51.362;6.686;2023-05-13T10:50:35;2.20;;;2.00;;
13067;SDS011;6600;51.362;6.686;2023-05-13T10:53:06;2.03;;;1.70;;
13067;SDS011;6600;51.362;6.686;2023-05-13T10:55:38;2.47;;;2.20;;
13067;SDS011;6600;51.362;6.686;2023-05-13T10:58:14;1.80;;;1.70;;
13067;SDS011;6600;51.362;6.686;2023-05-13T11:00:41;1.90;;;1.80;;
13067;SDS011;6600;51.362;6.686;2023-05-13T11:03:11;1.83;;;1.63;;
13067;SDS011;6600;51.362;6.686;2023-05-13T11:05:46;2.00;;;1.60;;
13067;SDS011;6600;51.362;6.686;2023-05-13T11:08:35;2.00;;;1.83;;
13067;SDS011;6600;51.362;6.686;2023-05-13T11:11:00;2.03;;;1.80;;
13067;SDS011;6600;51.362;6.686;2023-05-13T11:13:35;2.20;;;2.00;;
13067;SDS011;6600;51.362;6.686;2023-05-13T11:16:01;2.70;;;2.40;;
13067;SDS011;6600;51.362;6.686;2023-05-13T11:18:31;2.13;;;1.70;;
13067;SDS011;6600;51.362;6.686;2023-05-13T11:21:02;2.40;;;2.20;;
13067;SDS011;6600;51.362;6.686;2023-05-13T11:23:28;1.90;;;1.63;;
13067;SDS011;6600;51.362;6.686;2023-05-13T11:28:52;2.60;;;2.07;;
13067;SDS011;6600;51.362;6.686;2023-05-13T11:31:18;2.37;;;1.77;;
13067;SDS011;6600;51.362;6.686;2023-05-13T11:36:33;2.20;;;2.10;;
13067;SDS011;6600;51.362;6.686;2023-05-13T11:39:04;3.00;;;2.57;;
13067;SDS011;6600;51.362;6.686;2023-05-13T11:41:33;2.10;;;1.90;;
13067;SDS011;6600;51.362;6.686;2023-05-13T11:44:00;1.93;;;1.80;;
13067;SDS011;6600;51.362;6.686;2023-05-13T11:46:28;2.67;;;2.33;;
13067;SDS011;6600;51.362;6.686;2023-05-13T11:48:53;2.07;;;1.87;;
13067;SDS011;6600;51.362;6.686;2023-05-13T11:51:19;1.83;;;1.73;;
13067;SDS011;6600;51.362;6.686;2023-05-13T11:53:45;4.17;;;1.60;;
13067;SDS011;6600;51.362;6.686;2023-05-13T11:56:10;1.70;;;1.60;;
13067;SDS011;6600;51.362;6.686;2023-05-13T11:58:36;2.13;;;1.93;;
13067;SDS011;6600;51.362;6.686;2023-05-13T12:01:02;2.07;;;1.90;;
13067;SDS011;6600;51.362;6.686;2023-05-13T12:03:27;2.80;;;1.80;;
13067;SDS011;6600;51.362;6.686;2023-05-13T12:06:02;2.17;;;1.97;;
13067;SDS011;6600;51.362;6.686;2023-05-13T12:08:28;1.80;;;1.70;;
13067;SDS011;6600;51.362;6.686;2023-05-13T12:10:54;1.83;;;1.73;;
13067;SDS011;6600;51.362;6.686;2023-05-13T12:13:19;2.07;;;1.87;;
13067;SDS011;6600;51.362;6.686;2023-05-13T12:15:45;4.03;;;2.20;;
13067;SDS011;6600;51.362;6.686;2023-05-13T12:18:11;2.17;;;1.97;;
13067;SDS011;6600;51.362;6.686;2023-05-13T12:20:37;2.50;;;1.93;;
13067;SDS011;6600;51.362;6.686;2023-05-13T12:23:02;2.43;;;2.00;;
13067;SDS011;6600;51.362;6.686;2023-05-13T12:25:45;2.33;;;2.13;;
13067;SDS011;6600;51.362;6.686;2023-05-13T12:33:16;2.00;;;1.80;;
13067;SDS011;6600;51.362;6.686;2023-05-13T12:35:47;1.87;;;1.60;;
13067;SDS011;6600;51.362;6.686;2023-05-13T12:38:14;1.50;;;1.40;;
13067;SDS011;6600;51.362;6.686;2023-05-13T12:40:42;2.17;;;1.63;;
13067;SDS011;6600;51.362;6.686;2023-05-13T12:43:08;1.90;;;1.80;;
13067;SDS011;6600;51.362;6.686;2023-05-13T12:45:35;2.13;;;1.83;;
13067;SDS011;6600;51.362;6.686;2023-05-13T12:48:01;2.20;;;2.00;;
13067;SDS011;6600;51.362;6.686;2023-05-13T12:50:27;2.03;;;1.93;;
13067;SDS011;6600;51.362;6.686;2023-05-13T12:52:52;2.27;;;2.07;;
13067;SDS011;6600;51.362;6.686;2023-05-13T12:55:18;2.73;;;1.77;;
13067;SDS011;6600;51.362;6.686;2023-05-13T12:57:48;2.90;;;2.27;;
13067;SDS011;6600;51.362;6.686;2023-05-13T13:00:19;1.87;;;1.77;;
13067;SDS011;6600;51.362;6.686;2023-05-13T13:02:44;2.47;;;2.27;;
13067;SDS011;6600;51.362;6.686;2023-05-13T13:05:10;2.37;;;2.13;;
13067;SDS011;6600;51.362;6.686;2023-05-13T13:07:35;2.10;;;1.83;;
13067;SDS011;6600;51.362;6.686;2023-05-13T13:10:02;2.40;;;2.00;;
13067;SDS011;6600;51.362;6.686;2023-05-13T13:12:31;2.10;;;1.90;;
13067;SDS011;6600;51.362;6.686;2023-05-13T13:14:56;2.77;;;2.13;;
13067;SDS011;6600;51.362;6.686;2023-05-13T13:17:21;2.63;;;1.83;;
13067;SDS011;6600;51.362;6.686;2023-05-13T13:19:47;1.80;;;1.70;;
13067;SDS011;6600;51.362;6.686;2023-05-13T13:22:13;1.90;;;1.80;;
13067;SDS011;6600;51.362;6.686;2023-05-13T13:24:39;1.93;;;1.70;;
13067;SDS011;6600;51.362;6.686;2023-05-13T13:27:04;2.70;;;2.13;;
13067;SDS011;6600;51.362;6.686;2023-05-13T13:29:30;2.07;;;1.97;;
13067;SDS011;6600;51.362;6.686;2023-05-13T13:31:55;3.13;;;1.87;;
13067;SDS011;6600;51.362;6.686;2023-05-13T13:34:20;2.20;;;2.00;;
13067;SDS011;6600;51.362;6.686;2023-05-13T13:36:45;2.33;;;1.90;;
13067;SDS011;6600;51.362;6.686;2023-05-13T13:39:11;1.80;;;1.70;;
13067;SDS011;6600;51.362;6.686;2023-05-13T13:41:37;1.80;;;1.70;;
13067;SDS011;6600;51.362;6.686;2023-05-13T13:44:02;2.17;;;1.97;;
13067;SDS011;6600;51.362;6.686;2023-05-13T13:46:28;2.67;;;2.47;;
13067;SDS011;6600;51.362;6.686;2023-05-13T13:48:53;2.87;;;2.30;;
13067;SDS011;6600;51.362;6.686;2023-05-13T13:51:19;2.33;;;1.90;;
13067;SDS011;6600;51.362;6.686;2023-05-13T13:53:45;2.10;;;1.70;;
13067;SDS011;6600;51.362;6.686;2023-05-13T13:56:10;2.00;;;1.90;;
13067;SDS011;6600;51.362;6.686;2023-05-13T13:58:35;1.90;;;1.80;;
13067;SDS011;6600;51.362;6.686;2023-05-13T14:01:01;2.33;;;2.13;;
13067;SDS011;6600;51.362;6.686;2023-05-13T14:03:26;2.20;;;2.00;;
13067;SDS011;6600;51.362;6.686;2023-05-13T14:05:52;2.97;;;1.87;;
13067;SDS011;6600;51.362;6.686;2023-05-13T14:08:19;2.23;;;2.03;;
13067;SDS011;6600;51.362;6.686;2023-05-13T14:10:44;2.00;;;1.80;;
13067;SDS011;6600;51.362;6.686;2023-05-13T14:13:09;2.40;;;1.77;;
13067;SDS011;6600;51.362;6.686;2023-05-13T14:15:35;2.60;;;2.20;;
13067;SDS011;6600;51.362;6.686;2023-05-13T14:18:03;2.07;;;1.80;;
13067;SDS011;6600;51.362;6.686;2023-05-13T14:20:30;2.63;;;1.93;;
13067;SDS011;6600;51.362;6.686;2023-05-13T14:22:57;2.20;;;2.00;;
13067;SDS011;6600;51.362;6.686;2023-05-13T14:25:23;1.97;;;1.87;;
13067;SDS011;6600;51.362;6.686;2023-05-13T14:27:48;2.00;;;1.90;;
13067;SDS011;6600;51.362;6.686;2023-05-13T14:30:14;3.07;;;1.80;;
13067;SDS011;6600;51.362;6.686;2023-05-13T14:32:39;2.50;;;2.30;;
13067;SDS011;6600;51.362;6.686;2023-05-13T14:35:06;2.00;;;1.90;;
13067;SDS011;6600;51.362;6.686;2023-05-13T14:37:32;2.73;;;2.00;;
13067;SDS011;6600;51.362;6.686;2023-05-13T14:39:57;3.00;;;2.10;;
13067;SDS011;6600;51.362;6.686;2023-05-13T14:42:22;3.03;;;2.07;;
13067;SDS011;6600;51.362;6.686;2023-05-13T14:44:48;1.90;;;1.80;;
13067;SDS011;6600;51.362;6.686;2023-05-13T14:47:13;2.13;;;1.93;;
13067;SDS011;6600;51.362;6.686;2023-05-13T14:49:38;2.43;;;2.23;;
13067;SDS011;6600;51.362;6.686;2023-05-13T14:52:04;2.23;;;1.93;;
13067;SDS011;6600;51.362;6.686;2023-05-13T14:54:29;2.07;;;1.93;;
13067;SDS011;6600;51.362;6.686;2023-05-13T14:56:59;1.90;;;1.80;;
13067;SDS011;6600;51.362;6.686;2023-05-13T14:59:25;1.80;;;1.70;;
13067;SDS011;6600;51.362;6.686;2023-05-13T15:01:53;2.00;;;1.80;;
13067;SDS011;6600;51.362;6.686;2023-05-13T15:04:18;1.90;;;1.80;;
13067;SDS011;6600;51.362;6.686;2023-05-13T15:06:44;1.83;;;1.73;;
13067;SDS011;6600;51.362;6.686;2023-05-13T15:09:09;1.80;;;1.70;;
13067;SDS011;6600;51.362;6.686;2023-05-13T15:11:34;2.03;;;1.93;;
13067;SDS011;6600;51.362;6.686;2023-05-13T15:14:01;1.63;;;1.53;;
13067;SDS011;6600;51.362;6.686;2023-05-13T15:16:27;1.70;;;1.60;;